createdAt,value
2022-11-26T00:02:21.760Z,13.97
2022-11-26T00:04:49.597Z,12.43
2022-11-26T00:07:25.899Z,11.57
2022-11-26T00:09:58.039Z,11.20
2022-11-26T00:12:28.454Z,12.23
2022-11-26T00:14:55.544Z,11.73
2022-11-26T00:17:22.885Z,14.97
2022-11-26T00:19:49.843Z,13.63
2022-11-26T00:22:43.633Z,11.87
2022-11-26T00:25:20.162Z,12.57
2022-11-26T00:27:47.484Z,10.43
2022-11-26T00:30:17.851Z,20.33
2022-11-26T00:32:44.860Z,14.83
2022-11-26T00:35:12.226Z,15.10
2022-11-26T00:37:58.298Z,11.77
2022-11-26T00:40:31.371Z,13.40
2022-11-26T00:43:01.616Z,12.77
2022-11-26T00:45:31.073Z,14.87
2022-11-26T00:47:58.023Z,12.90
2022-11-26T00:50:27.557Z,13.97
2022-11-26T00:52:56.748Z,11.87
2022-11-26T00:55:33.617Z,12.00
2022-11-26T00:58:00.927Z,13.73
2022-11-26T01:00:31.681Z,12.83
2022-11-26T01:02:59.202Z,10.57
2022-11-26T01:05:33.513Z,13.77
2022-11-26T01:08:25.350Z,11.37
2022-11-26T01:10:52.294Z,11.20
2022-11-26T01:13:20.027Z,13.03
2022-11-26T01:15:47.023Z,11.07
2022-11-26T01:18:18.004Z,11.50
2022-11-26T01:20:45.584Z,13.90
2022-11-26T01:23:14.694Z,11.63
2022-11-26T01:25:42.389Z,12.70
2022-11-26T01:28:16.141Z,11.23
2022-11-26T01:30:43.599Z,13.40
2022-11-26T01:33:10.723Z,13.33
2022-11-26T01:35:38.106Z,12.73
2022-11-26T01:38:05.442Z,16.93
2022-11-26T01:41:13.011Z,14.80
2022-11-26T01:43:42.603Z,16.80
2022-11-26T01:46:16.280Z,15.90
2022-11-26T01:48:43.609Z,13.23
2022-11-26T01:51:12.198Z,17.83
2022-11-26T01:53:44.114Z,16.90
2022-11-26T01:56:25.635Z,17.57
2022-11-26T01:59:09.021Z,16.17
2022-11-26T02:01:36.486Z,16.10
2022-11-26T02:04:16.663Z,17.43
2022-11-26T02:06:45.855Z,18.37
2022-11-26T02:09:13.895Z,19.27
2022-11-26T02:11:41.010Z,19.17
2022-11-26T02:14:19.843Z,18.30
2022-11-26T02:17:26.135Z,19.10
2022-11-26T02:20:33.350Z,20.93
2022-11-26T02:23:37.915Z,23.10
2022-11-26T02:26:35.823Z,21.27
2022-11-26T02:29:10.725Z,19.07
2022-11-26T02:31:56.315Z,19.90
2022-11-26T02:34:48.944Z,21.13
2022-11-26T02:37:23.048Z,22.30
2022-11-26T02:39:51.389Z,27.80
2022-11-26T02:42:32.847Z,24.90
2022-11-26T02:45:08.736Z,26.10
2022-11-26T02:47:40.249Z,27.57
2022-11-26T02:50:15.007Z,26.07
2022-11-26T02:52:42.903Z,25.73
2022-11-26T02:55:12.631Z,29.60
2022-11-26T02:57:47.556Z,26.40
2022-11-26T03:00:16.491Z,28.47
2022-11-26T03:03:02.573Z,32.63
2022-11-26T03:05:35.419Z,27.80
2022-11-26T03:08:05.067Z,32.60
2022-11-26T03:10:33.119Z,27.10
2022-11-26T03:13:00.638Z,29.50
2022-11-26T03:15:28.305Z,27.17
2022-11-26T03:17:55.367Z,27.67
2022-11-26T03:20:22.260Z,28.73
2022-11-26T03:22:49.140Z,35.97
2022-11-26T03:25:16.155Z,31.30
2022-11-26T03:27:43.031Z,31.97
2022-11-26T03:30:10.326Z,32.80
2022-11-26T03:32:37.531Z,36.23
2022-11-26T03:35:05.446Z,28.20
2022-11-26T03:37:32.520Z,32.67
2022-11-26T03:39:59.415Z,27.93
2022-11-26T03:42:26.316Z,30.73
2022-11-26T03:44:53.223Z,36.50
2022-11-26T03:47:20.100Z,28.93
2022-11-26T03:49:47.042Z,34.23
2022-11-26T03:52:13.984Z,32.70
2022-11-26T03:54:40.928Z,37.90
2022-11-26T03:57:07.951Z,35.83
2022-11-26T03:59:34.836Z,32.40
2022-11-26T04:02:01.716Z,29.50
2022-11-26T04:04:28.606Z,31.50
2022-11-26T04:06:55.491Z,31.47
2022-11-26T04:09:22.359Z,31.70
2022-11-26T04:11:49.268Z,33.40
2022-11-26T04:14:16.454Z,40.83
2022-11-26T04:16:43.430Z,31.80
2022-11-26T04:19:10.322Z,27.93
2022-11-26T04:21:37.252Z,30.47
2022-11-26T04:24:04.283Z,26.40
2022-11-26T04:26:31.219Z,27.60
2022-11-26T04:28:58.084Z,25.10
2022-11-26T04:31:25.236Z,27.67
2022-11-26T04:33:52.319Z,30.37
2022-11-26T04:36:19.211Z,25.10
2022-11-26T04:38:46.086Z,33.00
2022-11-26T04:41:13.022Z,25.90
2022-11-26T04:43:39.896Z,27.97
2022-11-26T04:46:06.887Z,30.50
2022-11-26T04:48:33.801Z,27.37
2022-11-26T04:51:00.679Z,28.73
2022-11-26T04:53:27.601Z,25.40
2022-11-26T04:55:54.488Z,23.13
2022-11-26T04:58:21.501Z,26.77
2022-11-26T05:00:51.327Z,24.47
2022-11-26T05:03:19.200Z,26.10
2022-11-26T05:05:47.089Z,28.43
2022-11-26T05:08:14.074Z,24.17
2022-11-26T05:10:40.981Z,26.50
2022-11-26T05:13:07.862Z,24.47
2022-11-26T05:15:34.747Z,20.67
2022-11-26T05:18:01.605Z,28.97
2022-11-26T05:20:28.499Z,26.90
2022-11-26T05:22:55.388Z,29.67
2022-11-26T05:25:22.291Z,31.63
2022-11-26T05:27:49.183Z,26.67
2022-11-26T05:30:16.317Z,30.87
2022-11-26T05:32:43.207Z,24.07
2022-11-26T05:35:10.590Z,25.30
2022-11-26T05:37:37.640Z,33.80
2022-11-26T05:40:05.893Z,31.60
2022-11-26T05:42:32.930Z,23.20
2022-11-26T05:44:59.980Z,26.97
2022-11-26T05:47:26.855Z,30.93
2022-11-26T05:49:53.999Z,36.93
2022-11-26T05:52:21.618Z,41.53
2022-11-26T05:54:48.575Z,30.80
2022-11-26T05:57:15.522Z,33.93
2022-11-26T05:59:42.644Z,35.23
2022-11-26T06:02:09.725Z,33.20
2022-11-26T06:04:36.946Z,48.70
2022-11-26T06:07:04.073Z,34.70
2022-11-26T06:09:30.954Z,45.33
2022-11-26T06:11:57.861Z,46.30
2022-11-26T06:14:24.738Z,44.60
2022-11-26T06:16:51.713Z,51.80
2022-11-26T06:19:18.628Z,40.80
2022-11-26T06:21:45.527Z,44.70
2022-11-26T06:24:12.410Z,35.47
2022-11-26T06:26:39.281Z,48.80
2022-11-26T06:29:06.295Z,52.13
2022-11-26T06:31:33.671Z,41.93
2022-11-26T06:34:00.637Z,42.97
2022-11-26T06:36:27.671Z,35.83
2022-11-26T06:38:54.542Z,44.20
2022-11-26T06:41:21.591Z,38.37
2022-11-26T06:43:48.474Z,34.63
2022-11-26T06:46:15.438Z,45.77
2022-11-26T06:48:42.395Z,35.80
2022-11-26T06:51:16.327Z,42.50
2022-11-26T06:53:43.592Z,42.93
2022-11-26T06:56:18.104Z,33.37
2022-11-26T06:58:47.285Z,35.60
2022-11-26T07:01:26.404Z,35.50
2022-11-26T07:03:55.024Z,43.00
2022-11-26T07:06:31.940Z,33.73
2022-11-26T07:09:04.324Z,44.53
2022-11-26T07:11:31.227Z,49.30
2022-11-26T07:13:58.285Z,40.47
2022-11-26T07:16:25.609Z,52.97
2022-11-26T07:19:02.166Z,67.17
2022-11-26T07:21:30.266Z,41.43
2022-11-26T07:23:57.260Z,40.97
2022-11-26T07:26:24.179Z,42.67
2022-11-26T07:28:51.773Z,51.50
2022-11-26T07:31:21.982Z,50.40
2022-11-26T07:33:49.466Z,46.87
2022-11-26T07:36:20.983Z,65.50
2022-11-26T07:38:48.064Z,53.40
2022-11-26T07:41:19.261Z,48.83
2022-11-26T07:43:46.938Z,38.27
2022-11-26T07:46:18.561Z,36.10
2022-11-26T07:48:46.005Z,39.93
2022-11-26T07:51:27.337Z,54.93
2022-11-26T07:53:56.003Z,43.63
2022-11-26T07:56:22.940Z,48.13
2022-11-26T07:58:49.878Z,47.40
2022-11-26T08:01:29.742Z,50.50
2022-11-26T08:03:58.475Z,43.20
2022-11-26T08:06:29.245Z,58.73
2022-11-26T08:08:58.652Z,44.60
2022-11-26T08:11:29.719Z,56.53
2022-11-26T08:14:00.480Z,44.03
2022-11-26T08:16:29.060Z,51.83
2022-11-26T08:18:59.503Z,46.43
2022-11-26T08:21:26.957Z,43.50
2022-11-26T08:23:54.599Z,44.97
2022-11-26T08:26:29.332Z,42.63
2022-11-26T08:29:01.008Z,48.53
2022-11-26T08:31:28.738Z,43.30
2022-11-26T08:34:00.581Z,42.37
2022-11-26T08:36:29.467Z,46.83
2022-11-26T08:38:57.111Z,55.67
2022-11-26T08:41:24.322Z,40.93
2022-11-26T08:44:06.029Z,41.10
2022-11-26T08:46:33.893Z,47.47
2022-11-26T08:49:00.935Z,44.33
2022-11-26T08:51:27.819Z,42.53
2022-11-26T08:53:54.687Z,33.67
2022-11-26T08:56:21.848Z,30.77
2022-11-26T08:58:49.257Z,27.53
2022-11-26T09:01:24.736Z,26.43
2022-11-26T09:03:54.141Z,31.77
2022-11-26T09:06:23.139Z,39.60
2022-11-26T09:09:09.062Z,32.70
2022-11-26T09:11:41.395Z,28.50
2022-11-26T09:14:09.361Z,39.90
2022-11-26T09:16:36.382Z,28.47
2022-11-26T09:19:06.199Z,36.83
2022-11-26T09:21:35.346Z,39.27
2022-11-26T09:24:02.994Z,28.90
2022-11-26T09:26:31.960Z,39.03
2022-11-26T09:28:59.305Z,37.67
2022-11-26T09:31:26.655Z,27.53
2022-11-26T09:33:58.642Z,26.60
2022-11-26T09:36:26.214Z,27.50
2022-11-26T09:38:57.539Z,34.03
2022-11-26T09:41:52.113Z,28.10
2022-11-26T09:44:37.115Z,30.93
2022-11-26T09:47:22.414Z,39.37
2022-11-26T09:50:07.130Z,32.17
2022-11-26T09:53:13.428Z,28.37
2022-11-26T09:55:45.347Z,27.30
2022-11-26T09:58:33.155Z,25.20
2022-11-26T10:01:01.190Z,32.13
2022-11-26T10:03:34.208Z,22.53
2022-11-26T10:06:24.163Z,26.47
2022-11-26T10:09:20.590Z,27.93
2022-11-26T10:12:24.955Z,19.00
2022-11-26T10:15:28.782Z,24.77
2022-11-26T10:18:28.364Z,25.70
2022-11-26T10:21:11.546Z,28.37
2022-11-26T10:24:14.739Z,22.17
2022-11-26T10:26:41.923Z,23.80
2022-11-26T10:29:38.515Z,30.97
2022-11-26T10:32:40.829Z,18.47
2022-11-26T10:35:15.330Z,27.63
2022-11-26T10:37:42.483Z,27.40
2022-11-26T10:40:29.347Z,23.47
2022-11-26T10:43:08.415Z,19.23
2022-11-26T10:45:42.492Z,22.60
2022-11-26T10:48:30.615Z,28.60
2022-11-26T10:51:30.173Z,23.07
2022-11-26T10:54:00.451Z,24.53
2022-11-26T10:56:42.296Z,23.37
2022-11-26T10:59:40.660Z,21.50
2022-11-26T11:02:20.120Z,19.37
2022-11-26T11:04:51.791Z,17.10
2022-11-26T11:07:38.339Z,30.47
2022-11-26T11:10:08.152Z,23.83
2022-11-26T11:12:43.559Z,19.23
2022-11-26T11:15:26.807Z,21.07
2022-11-26T11:18:04.123Z,21.47
2022-11-26T11:20:35.409Z,18.57
2022-11-26T11:23:19.305Z,23.73
2022-11-26T11:26:04.143Z,21.03
2022-11-26T11:28:34.316Z,28.17
2022-11-26T11:31:11.211Z,23.87
2022-11-26T11:33:38.333Z,16.73
2022-11-26T11:36:14.217Z,16.07
2022-11-26T11:38:54.296Z,16.60
2022-11-26T11:41:29.110Z,13.93
2022-11-26T11:44:05.222Z,17.47
2022-11-26T11:47:17.919Z,25.80
2022-11-26T11:50:23.400Z,22.27
2022-11-26T11:53:36.355Z,17.80
2022-11-26T11:56:25.024Z,17.20
2022-11-26T11:59:19.466Z,21.13
2022-11-26T12:01:52.965Z,25.97
2022-11-26T12:04:56.631Z,28.33
2022-11-26T12:07:38.751Z,21.30
2022-11-26T12:10:16.671Z,23.03
2022-11-26T12:12:53.427Z,40.33
2022-11-26T12:15:55.516Z,21.43
2022-11-26T12:18:43.969Z,26.40
2022-11-26T12:21:16.287Z,28.10
2022-11-26T12:23:58.570Z,22.63
2022-11-26T12:26:37.175Z,25.63
2022-11-26T12:29:18.583Z,19.23
2022-11-26T12:31:51.544Z,30.90
2022-11-26T12:34:33.714Z,28.20
2022-11-26T12:37:24.299Z,23.77
2022-11-26T12:40:00.429Z,22.50
2022-11-26T12:42:45.613Z,21.47
2022-11-26T12:45:42.732Z,22.87
2022-11-26T12:48:47.982Z,22.53
2022-11-26T12:51:29.883Z,26.30
2022-11-26T12:54:19.981Z,19.23
2022-11-26T12:57:12.675Z,18.10
2022-11-26T13:00:06.266Z,34.03
2022-11-26T13:02:37.897Z,28.10
2022-11-26T13:05:05.519Z,22.63
2022-11-26T13:08:03.370Z,27.17
2022-11-26T13:11:05.924Z,22.93
2022-11-26T13:14:05.031Z,25.07
2022-11-26T13:16:47.328Z,18.63
2022-11-26T13:19:27.345Z,19.20
2022-11-26T13:22:32.155Z,16.03
2022-11-26T13:25:35.121Z,20.60
2022-11-26T13:28:34.455Z,15.80
2022-11-26T13:31:47.962Z,20.00
2022-11-26T13:34:44.465Z,26.53
2022-11-26T13:37:48.652Z,26.03
2022-11-26T13:40:58.895Z,21.40
2022-11-26T13:44:12.451Z,21.27
2022-11-26T13:46:47.062Z,24.57
2022-11-26T13:49:43.160Z,19.43
2022-11-26T13:52:24.444Z,33.23
2022-11-26T13:55:07.514Z,21.10
2022-11-26T13:57:46.700Z,34.93
2022-11-26T14:00:29.344Z,36.03
2022-11-26T14:02:57.394Z,29.97
2022-11-26T14:05:50.263Z,38.30
2022-11-26T14:08:41.409Z,31.73
2022-11-26T14:11:09.341Z,36.57
2022-11-26T14:13:36.994Z,33.47
2022-11-26T14:16:09.052Z,42.87
2022-11-26T14:18:53.167Z,38.53
2022-11-26T14:21:21.498Z,31.80
2022-11-26T14:23:55.830Z,28.83
2022-11-26T14:26:34.593Z,38.53
2022-11-26T14:29:09.845Z,33.00
2022-11-26T14:31:49.529Z,31.63
2022-11-26T14:34:27.310Z,31.60
2022-11-26T14:37:02.284Z,30.73
2022-11-26T14:39:29.652Z,30.30
2022-11-26T14:42:04.075Z,27.37
2022-11-26T14:44:33.567Z,30.07
2022-11-26T14:47:20.837Z,30.57
2022-11-26T14:49:56.258Z,36.83
2022-11-26T14:52:39.448Z,28.13
2022-11-26T14:55:17.942Z,24.70
2022-11-26T14:57:51.525Z,29.27
2022-11-26T15:00:27.089Z,33.33
2022-11-26T15:02:54.734Z,27.97
2022-11-26T15:05:29.158Z,25.33
2022-11-26T15:08:14.074Z,25.47
2022-11-26T15:10:54.027Z,30.13
2022-11-26T15:13:36.367Z,27.50
2022-11-26T15:16:36.363Z,30.23
2022-11-26T15:19:05.719Z,23.80
2022-11-26T15:21:35.891Z,21.03
2022-11-26T15:24:08.394Z,23.63
2022-11-26T15:26:36.837Z,29.57
2022-11-26T15:29:41.406Z,30.97
2022-11-26T15:32:30.479Z,22.07
2022-11-26T15:35:03.603Z,27.40
2022-11-26T15:37:30.675Z,30.43
2022-11-26T15:40:25.090Z,23.27
2022-11-26T15:43:03.139Z,24.97
2022-11-26T15:45:41.236Z,38.23
2022-11-26T15:48:50.509Z,33.13
2022-11-26T15:51:32.131Z,35.90
2022-11-26T15:54:03.637Z,37.73
2022-11-26T15:56:37.088Z,31.67
2022-11-26T15:59:15.388Z,75.40
2022-11-26T16:01:46.361Z,45.03
2022-11-26T16:04:43.094Z,52.30
2022-11-26T16:07:17.403Z,42.77
2022-11-26T16:09:45.763Z,38.73
2022-11-26T16:12:35.308Z,31.67
2022-11-26T16:15:17.929Z,36.97
2022-11-26T16:17:45.608Z,40.13
2022-11-26T16:20:25.454Z,43.07
2022-11-26T16:22:57.979Z,38.87
2022-11-26T16:25:28.331Z,41.60
2022-11-26T16:28:10.381Z,43.60
2022-11-26T16:30:43.271Z,39.03
2022-11-26T16:33:10.787Z,28.33
2022-11-26T16:35:46.568Z,27.53
2022-11-26T16:38:25.259Z,29.67
2022-11-26T16:40:52.362Z,27.10
2022-11-26T16:43:19.641Z,37.13
2022-11-26T16:45:48.623Z,27.60
2022-11-26T16:48:27.580Z,28.23
2022-11-26T16:50:56.301Z,30.80
2022-11-26T16:53:23.673Z,30.50
2022-11-26T16:55:52.144Z,29.93
2022-11-26T16:58:37.905Z,34.73
2022-11-26T17:01:04.858Z,32.57
2022-11-26T17:03:34.889Z,30.90
2022-11-26T17:06:16.214Z,38.07
2022-11-26T17:08:49.126Z,28.73
2022-11-26T17:11:16.794Z,38.77
2022-11-26T17:13:43.674Z,30.23
2022-11-26T17:16:15.173Z,29.37
2022-11-26T17:18:42.192Z,58.33
2022-11-26T17:21:09.185Z,152.60
2022-11-26T17:23:36.243Z,98.43
2022-11-26T17:26:11.633Z,61.63
2022-11-26T17:28:38.518Z,50.13
2022-11-26T17:31:05.504Z,44.50
2022-11-26T17:33:32.443Z,38.90
2022-11-26T17:35:59.340Z,51.00
2022-11-26T17:38:26.245Z,42.30
2022-11-26T17:40:53.144Z,33.17
2022-11-26T17:43:20.020Z,39.23
2022-11-26T17:45:46.965Z,28.13
2022-11-26T17:48:14.267Z,34.30
2022-11-26T17:50:41.572Z,27.17
2022-11-26T17:53:08.696Z,33.53
2022-11-26T17:55:35.662Z,41.27
2022-11-26T17:58:02.535Z,30.03
2022-11-26T18:00:30.189Z,35.00
2022-11-26T18:02:57.932Z,35.90
2022-11-26T18:05:25.389Z,40.03
2022-11-26T18:07:52.381Z,30.87
2022-11-26T18:10:22.212Z,30.77
2022-11-26T18:12:53.152Z,41.03
2022-11-26T18:15:23.744Z,36.20
2022-11-26T18:17:53.625Z,39.60
2022-11-26T18:20:24.376Z,37.60
2022-11-26T18:22:54.092Z,31.27
2022-11-26T18:25:21.605Z,30.70
2022-11-26T18:27:48.561Z,46.43
2022-11-26T18:30:17.060Z,39.90
2022-11-26T18:32:44.512Z,36.83
2022-11-26T18:35:11.634Z,34.90
2022-11-26T18:37:40.095Z,38.23
2022-11-26T18:40:11.422Z,40.13
2022-11-26T18:42:38.661Z,35.13
2022-11-26T18:45:09.555Z,33.73
2022-11-26T18:47:36.427Z,36.73
2022-11-26T18:50:04.088Z,43.93
2022-11-26T18:52:30.958Z,33.23
2022-11-26T18:54:58.056Z,39.27
2022-11-26T18:57:24.939Z,41.00
2022-11-26T18:59:51.811Z,36.77
2022-11-26T19:02:18.773Z,33.77
2022-11-26T19:04:46.153Z,36.60
2022-11-26T19:07:14.190Z,33.63
2022-11-26T19:09:41.696Z,47.10
2022-11-26T19:12:08.991Z,46.63
2022-11-26T19:14:35.990Z,40.03
2022-11-26T19:17:02.906Z,36.50
2022-11-26T19:19:29.987Z,37.20
2022-11-26T19:22:01.118Z,42.43
2022-11-26T19:24:29.068Z,37.67
2022-11-26T19:26:56.139Z,32.70
2022-11-26T19:29:23.125Z,38.33
2022-11-26T19:31:49.996Z,34.27
2022-11-26T19:34:17.234Z,45.00
2022-11-26T19:36:48.275Z,38.93
2022-11-26T19:39:16.471Z,29.17
2022-11-26T19:41:43.661Z,28.03
2022-11-26T19:44:10.584Z,33.03
2022-11-26T19:46:41.113Z,34.63
2022-11-26T19:49:12.191Z,30.10
2022-11-26T19:51:39.308Z,26.20
2022-11-26T19:54:07.160Z,30.23
2022-11-26T19:56:34.575Z,30.97
2022-11-26T19:59:02.320Z,34.47
2022-11-26T20:01:32.679Z,30.67
2022-11-26T20:04:03.305Z,35.10
2022-11-26T20:06:31.989Z,28.50
2022-11-26T20:08:59.230Z,25.73
2022-11-26T20:11:28.154Z,36.07
2022-11-26T20:13:56.297Z,24.33
2022-11-26T20:16:28.088Z,32.83
2022-11-26T20:18:55.855Z,39.30
2022-11-26T20:21:27.047Z,35.67
2022-11-26T20:23:57.284Z,25.67
2022-11-26T20:26:29.173Z,28.97
2022-11-26T20:29:00.268Z,40.40
2022-11-26T20:31:27.340Z,28.27
2022-11-26T20:33:55.475Z,25.53
2022-11-26T20:36:23.574Z,31.03
2022-11-26T20:38:55.443Z,29.30
2022-11-26T20:41:24.146Z,26.73
2022-11-26T20:43:58.245Z,28.03
2022-11-26T20:46:27.490Z,36.37
2022-11-26T20:48:54.773Z,31.60
2022-11-26T20:51:22.607Z,32.47
2022-11-26T20:53:51.116Z,41.27
2022-11-26T20:56:20.850Z,34.53
2022-11-26T20:58:48.232Z,27.20
2022-11-26T21:01:21.597Z,27.50
2022-11-26T21:03:49.543Z,32.70
2022-11-26T21:06:18.829Z,29.60
2022-11-26T21:08:46.143Z,30.63
2022-11-26T21:11:15.180Z,42.10
2022-11-26T21:13:42.862Z,29.43
2022-11-26T21:16:16.507Z,26.10
2022-11-26T21:18:44.144Z,28.03
2022-11-26T21:21:16.148Z,37.23
2022-11-26T21:23:44.774Z,25.97
2022-11-26T21:26:19.635Z,24.60
2022-11-26T21:28:55.995Z,26.90
2022-11-26T21:31:24.043Z,27.73
2022-11-26T21:34:02.626Z,27.07
2022-11-26T21:36:31.830Z,26.60
2022-11-26T21:38:58.784Z,33.07
2022-11-26T21:41:26.376Z,23.67
2022-11-26T21:43:53.820Z,24.40
2022-11-26T21:46:26.694Z,28.00
2022-11-26T21:48:55.183Z,31.93
2022-11-26T21:51:24.053Z,22.30
2022-11-26T21:53:53.304Z,31.67
2022-11-26T21:56:26.275Z,30.33
2022-11-26T21:58:53.520Z,25.03
2022-11-26T22:01:26.154Z,35.60
2022-11-26T22:03:56.618Z,27.53
2022-11-26T22:06:24.241Z,26.33
2022-11-26T22:08:52.230Z,31.40
2022-11-26T22:11:25.779Z,27.90
2022-11-26T22:13:53.420Z,26.70
2022-11-26T22:16:22.782Z,27.07
2022-11-26T22:18:51.212Z,31.97
2022-11-26T22:21:24.666Z,31.93
2022-11-26T22:23:52.736Z,25.90
2022-11-26T22:26:20.518Z,25.77
2022-11-26T22:28:49.602Z,23.40
2022-11-26T22:31:23.162Z,28.37
2022-11-26T22:33:54.119Z,26.77
2022-11-26T22:36:21.031Z,22.53
2022-11-26T22:38:47.894Z,23.07
2022-11-26T22:41:15.146Z,30.93
2022-11-26T22:43:42.539Z,30.33
2022-11-26T22:46:23.591Z,27.13
2022-11-26T22:48:55.966Z,26.43
2022-11-26T22:51:24.436Z,29.07
2022-11-26T22:54:01.568Z,32.93
2022-11-26T22:56:29.186Z,28.53
2022-11-26T22:58:56.494Z,28.33
2022-11-26T23:01:30.615Z,30.80
2022-11-26T23:03:59.768Z,32.60
2022-11-26T23:06:29.395Z,26.77
2022-11-26T23:08:58.226Z,29.20
2022-11-26T23:11:38.295Z,30.20
2022-11-26T23:14:07.446Z,29.23
2022-11-26T23:16:36.630Z,31.40
2022-11-26T23:19:04.423Z,30.47
2022-11-26T23:21:35.303Z,26.50
2022-11-26T23:24:02.229Z,31.87
2022-11-26T23:26:32.890Z,25.57
2022-11-26T23:29:01.660Z,30.33
2022-11-26T23:31:31.615Z,34.03
2022-11-26T23:33:59.483Z,33.10
2022-11-26T23:36:27.996Z,30.47
2022-11-26T23:38:55.391Z,33.47
2022-11-26T23:41:22.401Z,33.13
2022-11-26T23:43:49.540Z,30.70
2022-11-26T23:46:28.394Z,32.63
2022-11-26T23:48:55.634Z,30.03
2022-11-26T23:51:30.997Z,28.60
2022-11-26T23:53:58.232Z,29.97
2022-11-26T23:56:29.541Z,40.00
2022-11-26T23:59:01.608Z,44.93
